Lanark, WV (25860)

9:25 PM EDT on July 26, 2016 (GMT -0400)
Raleigh County Memorial | | Change Station

Elev 2513 ft 37.79 °N, 81.12 °W | Updated 10 minutes ago

Light Thunderstorms and Rain
Light Thunderstorm Rain Mist
71 °F
Feels Like 71 °F
N
7
Wind Variable Wind from SE

Today
High -- | Low -- °F
--% Chance of Precip.
Yesterday
High -- | Low -- °F
Precip. -- in
Pressure 30.13 in
Visibility 6.0 miles
Clouds Few 600 ft
Scattered Clouds 1100 ft
Mostly Cloudy 12000 ft
Dew Point 68 °F
Humidity 90%
Rainfall 0.00 in
Snow Depth Not available.
6:23 AM 8:38 PM
Waning Gibbous, 49% visible
SPECI KBKW 270115Z AUTO 13006KT 6SM -TSRA BR FEW006 SCT011 BKN120 22/20 A3013 RMK AO2 LTG DSNT E-SW RAB04 CIG 048 RWY19 P0001 T02170200 $
Pressure 30.13 in
Visibility 6.0 miles
Clouds Few 600 ft
Scattered Clouds 1100 ft
Mostly Cloudy 12000 ft
Dew Point 68 °F
Humidity 90%
Rainfall 0.00 in
Snow Depth Not available.
6:23 AM 8:38 PM
Waning Gibbous, 49% visible
SPECI KBKW 270115Z AUTO 13006KT 6SM -TSRA BR FEW006 SCT011 BKN120 22/20 A3013 RMK AO2 LTG DSNT E-SW RAB04 CIG 048 RWY19 P0001 T02170200 $

10-Day Weather Forecast

Almanac

Astronomy

Jul. 26, 2016 Rise Set
Actual Time
Civil Twilight
Nautical Twilight
Astronomical Twilight
Moon
Length of Visible Light
Length of Day
Tomorrow will be .
, % of the Moon is Illuminated

Today's Extremes

State Highs State Lows

Community

WunderPhotos

Upload Photos

1,927,772 photos uploaded!

WunderBlog® & News

Nearby

Air Quality

  Air Quality AQ Index Pollutant
Not available.

Snow Depth

Station Depth Elevation

Earthquake Activity

City Distance Mag. Time & Date
Minimum magnitude displayed is 2.5.

Coastal Water Temperatures

Place Temperature

Stations

Nearby Weather Stations

Station Location Temp. Windchill Dew Point Humidity Wind Precip. Elev Updated Type
                   

Watches & Warnings

There are currently no watches in effect.